sensor_id;sensor_type;location;lat;lon;timestamp;pressure;altitude;pressure_sealevel;temperature
10058;BMP180;5068;51.286;7.518;2023-12-20T00:01:19;99114.00;;;10.80
10058;BMP180;5068;51.286;7.518;2023-12-20T00:02:51;99115.00;;;10.80
10058;BMP180;5068;51.286;7.518;2023-12-20T00:04:24;99106.00;;;10.80
10058;BMP180;5068;51.286;7.518;2023-12-20T00:05:57;99116.00;;;10.80
10058;BMP180;5068;51.286;7.518;2023-12-20T00:07:30;99121.00;;;10.90
10058;BMP180;5068;51.286;7.518;2023-12-20T00:09:05;99113.00;;;10.80
10058;BMP180;5068;51.286;7.518;2023-12-20T00:10:37;99122.00;;;10.90
10058;BMP180;5068;51.286;7.518;2023-12-20T00:12:11;99103.00;;;10.90
10058;BMP180;5068;51.286;7.518;2023-12-20T00:13:44;99118.00;;;10.90
10058;BMP180;5068;51.286;7.518;2023-12-20T00:15:21;99113.00;;;10.90
10058;BMP180;5068;51.286;7.518;2023-12-20T00:16:54;99114.00;;;10.90
10058;BMP180;5068;51.286;7.518;2023-12-20T00:18:27;99111.00;;;10.90
10058;BMP180;5068;51.286;7.518;2023-12-20T00:19:59;99117.00;;;10.90
10058;BMP180;5068;51.286;7.518;2023-12-20T00:21:32;99119.00;;;10.90
10058;BMP180;5068;51.286;7.518;2023-12-20T00:23:05;99114.00;;;10.90
10058;BMP180;5068;51.286;7.518;2023-12-20T00:24:41;99124.00;;;10.90
10058;BMP180;5068;51.286;7.518;2023-12-20T00:26:13;99117.00;;;10.90
10058;BMP180;5068;51.286;7.518;2023-12-20T00:27:46;99116.00;;;10.90
10058;BMP180;5068;51.286;7.518;2023-12-20T00:29:19;99126.00;;;10.90
10058;BMP180;5068;51.286;7.518;2023-12-20T00:30:52;99129.00;;;10.90
10058;BMP180;5068;51.286;7.518;2023-12-20T00:32:25;99135.00;;;10.90
10058;BMP180;5068;51.286;7.518;2023-12-20T00:33:58;99133.00;;;10.90
10058;BMP180;5068;51.286;7.518;2023-12-20T00:35:31;99130.00;;;10.90
10058;BMP180;5068;51.286;7.518;2023-12-20T00:37:04;99125.00;;;11.00
10058;BMP180;5068;51.286;7.518;2023-12-20T00:38:37;99130.00;;;10.90
10058;BMP180;5068;51.286;7.518;2023-12-20T00:40:11;99132.00;;;10.90
10058;BMP180;5068;51.286;7.518;2023-12-20T00:41:44;99119.00;;;10.90
10058;BMP180;5068;51.286;7.518;2023-12-20T00:43:17;99121.00;;;10.90
10058;BMP180;5068;51.286;7.518;2023-12-20T00:44:50;99119.00;;;10.90
10058;BMP180;5068;51.286;7.518;2023-12-20T00:46:23;99117.00;;;10.90
10058;BMP180;5068;51.286;7.518;2023-12-20T00:47:56;99124.00;;;10.90
10058;BMP180;5068;51.286;7.518;2023-12-20T00:49:29;99123.00;;;10.90
10058;BMP180;5068;51.286;7.518;2023-12-20T00:51:01;99122.00;;;10.90
10058;BMP180;5068;51.286;7.518;2023-12-20T00:52:35;99133.00;;;10.90
10058;BMP180;5068;51.286;7.518;2023-12-20T00:54:07;99138.00;;;10.90
10058;BMP180;5068;51.286;7.518;2023-12-20T00:55:42;99140.00;;;10.90
10058;BMP180;5068;51.286;7.518;2023-12-20T00:57:16;99140.00;;;10.90
10058;BMP180;5068;51.286;7.518;2023-12-20T00:58:49;99134.00;;;10.90
10058;BMP180;5068;51.286;7.518;2023-12-20T01:00:21;99143.00;;;10.90
10058;BMP180;5068;51.286;7.518;2023-12-20T01:01:54;99146.00;;;10.90
10058;BMP180;5068;51.286;7.518;2023-12-20T01:03:27;99148.00;;;10.90
10058;BMP180;5068;51.286;7.518;2023-12-20T01:05:00;99145.00;;;10.90
10058;BMP180;5068;51.286;7.518;2023-12-20T01:06:32;99147.00;;;10.90
10058;BMP180;5068;51.286;7.518;2023-12-20T01:08:06;99147.00;;;10.90
10058;BMP180;5068;51.286;7.518;2023-12-20T01:09:38;99148.00;;;10.80
10058;BMP180;5068;51.286;7.518;2023-12-20T01:11:13;99144.00;;;10.80
10058;BMP180;5068;51.286;7.518;2023-12-20T01:12:45;99137.00;;;10.80
10058;BMP180;5068;51.286;7.518;2023-12-20T01:14:19;99142.00;;;10.80
10058;BMP180;5068;51.286;7.518;2023-12-20T01:15:51;99146.00;;;10.80
10058;BMP180;5068;51.286;7.518;2023-12-20T01:17:24;99154.00;;;10.80
10058;BMP180;5068;51.286;7.518;2023-12-20T01:18:56;99152.00;;;10.80
10058;BMP180;5068;51.286;7.518;2023-12-20T01:20:30;99165.00;;;10.80
10058;BMP180;5068;51.286;7.518;2023-12-20T01:22:03;99157.00;;;10.80
10058;BMP180;5068;51.286;7.518;2023-12-20T01:23:36;99167.00;;;10.80
10058;BMP180;5068;51.286;7.518;2023-12-20T01:25:09;99166.00;;;10.80
10058;BMP180;5068;51.286;7.518;2023-12-20T01:26:44;99168.00;;;10.80
10058;BMP180;5068;51.286;7.518;2023-12-20T01:28:17;99169.00;;;10.70
10058;BMP180;5068;51.286;7.518;2023-12-20T01:29:49;99171.00;;;10.70
10058;BMP180;5068;51.286;7.518;2023-12-20T01:31:22;99168.00;;;10.70
10058;BMP180;5068;51.286;7.518;2023-12-20T01:32:55;99177.00;;;10.70
10058;BMP180;5068;51.286;7.518;2023-12-20T01:34:28;99185.00;;;10.60
10058;BMP180;5068;51.286;7.518;2023-12-20T01:36:01;99169.00;;;10.60
10058;BMP180;5068;51.286;7.518;2023-12-20T01:37:34;99173.00;;;10.60
10058;BMP180;5068;51.286;7.518;2023-12-20T01:39:06;99176.00;;;10.60
10058;BMP180;5068;51.286;7.518;2023-12-20T01:40:56;99176.00;;;10.60
10058;BMP180;5068;51.286;7.518;2023-12-20T01:42:29;99173.00;;;10.50
10058;BMP180;5068;51.286;7.518;2023-12-20T01:44:02;99178.00;;;10.50
10058;BMP180;5068;51.286;7.518;2023-12-20T01:45:36;99177.00;;;10.50
10058;BMP180;5068;51.286;7.518;2023-12-20T01:47:09;99188.00;;;10.50
10058;BMP180;5068;51.286;7.518;2023-12-20T01:48:42;99179.00;;;10.50
10058;BMP180;5068;51.286;7.518;2023-12-20T01:50:16;99182.00;;;10.50
10058;BMP180;5068;51.286;7.518;2023-12-20T01:51:49;99186.00;;;10.50
10058;BMP180;5068;51.286;7.518;2023-12-20T01:53:25;99198.00;;;10.50
10058;BMP180;5068;51.286;7.518;2023-12-20T01:54:59;99188.00;;;10.50
10058;BMP180;5068;51.286;7.518;2023-12-20T01:56:35;99179.00;;;10.50
10058;BMP180;5068;51.286;7.518;2023-12-20T01:58:12;99189.00;;;10.50
10058;BMP180;5068;51.286;7.518;2023-12-20T01:59:45;99185.00;;;10.50
10058;BMP180;5068;51.286;7.518;2023-12-20T02:01:19;99188.00;;;10.50
10058;BMP180;5068;51.286;7.518;2023-12-20T02:02:54;99179.00;;;10.50
10058;BMP180;5068;51.286;7.518;2023-12-20T02:04:27;99172.00;;;10.50
10058;BMP180;5068;51.286;7.518;2023-12-20T02:06:00;99168.00;;;10.50
10058;BMP180;5068;51.286;7.518;2023-12-20T02:07:33;99178.00;;;10.50
10058;BMP180;5068;51.286;7.518;2023-12-20T02:09:08;99171.00;;;10.40
10058;BMP180;5068;51.286;7.518;2023-12-20T02:10:40;99182.00;;;10.40
10058;BMP180;5068;51.286;7.518;2023-12-20T02:12:14;99174.00;;;10.40
10058;BMP180;5068;51.286;7.518;2023-12-20T02:13:47;99178.00;;;10.40
10058;BMP180;5068;51.286;7.518;2023-12-20T02:15:21;99173.00;;;10.40
10058;BMP180;5068;51.286;7.518;2023-12-20T02:16:53;99177.00;;;10.40
10058;BMP180;5068;51.286;7.518;2023-12-20T02:18:27;99183.00;;;10.40
10058;BMP180;5068;51.286;7.518;2023-12-20T02:19:59;99178.00;;;10.40
10058;BMP180;5068;51.286;7.518;2023-12-20T02:21:34;99196.00;;;10.40
10058;BMP180;5068;51.286;7.518;2023-12-20T02:23:06;99182.00;;;10.40
10058;BMP180;5068;51.286;7.518;2023-12-20T02:24:39;99185.00;;;10.40
10058;BMP180;5068;51.286;7.518;2023-12-20T02:26:13;99170.00;;;10.40
10058;BMP180;5068;51.286;7.518;2023-12-20T02:27:47;99184.00;;;10.40
10058;BMP180;5068;51.286;7.518;2023-12-20T02:29:20;99181.00;;;10.40
10058;BMP180;5068;51.286;7.518;2023-12-20T02:30:54;99181.00;;;10.40
10058;BMP180;5068;51.286;7.518;2023-12-20T02:32:26;99186.00;;;10.40
10058;BMP180;5068;51.286;7.518;2023-12-20T02:34:00;99180.00;;;10.40
10058;BMP180;5068;51.286;7.518;2023-12-20T02:35:34;99172.00;;;10.40
10058;BMP180;5068;51.286;7.518;2023-12-20T02:37:07;99186.00;;;10.40
10058;BMP180;5068;51.286;7.518;2023-12-20T02:38:41;99180.00;;;10.40
10058;BMP180;5068;51.286;7.518;2023-12-20T02:40:14;99186.00;;;10.40
10058;BMP180;5068;51.286;7.518;2023-12-20T02:41:47;99196.00;;;10.30
10058;BMP180;5068;51.286;7.518;2023-12-20T02:43:20;99194.00;;;10.30
10058;BMP180;5068;51.286;7.518;2023-12-20T02:44:52;99192.00;;;10.30
10058;BMP180;5068;51.286;7.518;2023-12-20T02:46:25;99197.00;;;10.30
10058;BMP180;5068;51.286;7.518;2023-12-20T02:47:58;99197.00;;;10.30
10058;BMP180;5068;51.286;7.518;2023-12-20T02:49:31;99188.00;;;10.30
10058;BMP180;5068;51.286;7.518;2023-12-20T02:51:04;99192.00;;;10.30
10058;BMP180;5068;51.286;7.518;2023-12-20T02:52:38;99192.00;;;10.30
10058;BMP180;5068;51.286;7.518;2023-12-20T02:54:11;99192.00;;;10.30
10058;BMP180;5068;51.286;7.518;2023-12-20T02:55:44;99197.00;;;10.30
10058;BMP180;5068;51.286;7.518;2023-12-20T02:57:17;99199.00;;;10.30
10058;BMP180;5068;51.286;7.518;2023-12-20T02:58:50;99204.00;;;10.20
10058;BMP180;5068;51.286;7.518;2023-12-20T03:00:22;99204.00;;;10.20
10058;BMP180;5068;51.286;7.518;2023-12-20T03:01:56;99207.00;;;10.20
10058;BMP180;5068;51.286;7.518;2023-12-20T03:03:28;99203.00;;;10.20
10058;BMP180;5068;51.286;7.518;2023-12-20T03:05:01;99200.00;;;10.20
10058;BMP180;5068;51.286;7.518;2023-12-20T03:06:34;99201.00;;;10.20
10058;BMP180;5068;51.286;7.518;2023-12-20T03:08:09;99194.00;;;10.10
10058;BMP180;5068;51.286;7.518;2023-12-20T03:09:42;99195.00;;;10.10
10058;BMP180;5068;51.286;7.518;2023-12-20T03:11:35;99193.00;;;10.10
10058;BMP180;5068;51.286;7.518;2023-12-20T03:13:08;99192.00;;;10.00
10058;BMP180;5068;51.286;7.518;2023-12-20T03:14:40;99187.00;;;10.00
10058;BMP180;5068;51.286;7.518;2023-12-20T03:16:13;99190.00;;;10.00
10058;BMP180;5068;51.286;7.518;2023-12-20T03:17:48;99190.00;;;10.00
10058;BMP180;5068;51.286;7.518;2023-12-20T03:19:21;99181.00;;;9.90
10058;BMP180;5068;51.286;7.518;2023-12-20T03:20:55;99176.00;;;9.90
10058;BMP180;5068;51.286;7.518;2023-12-20T03:22:27;99180.00;;;9.90
10058;BMP180;5068;51.286;7.518;2023-12-20T03:24:02;99177.00;;;9.90
10058;BMP180;5068;51.286;7.518;2023-12-20T03:25:36;99179.00;;;9.90
10058;BMP180;5068;51.286;7.518;2023-12-20T03:27:08;99174.00;;;9.90
10058;BMP180;5068;51.286;7.518;2023-12-20T03:28:41;99171.00;;;9.90
10058;BMP180;5068;51.286;7.518;2023-12-20T03:30:14;99164.00;;;9.90
10058;BMP180;5068;51.286;7.518;2023-12-20T03:31:47;99166.00;;;9.90
10058;BMP180;5068;51.286;7.518;2023-12-20T03:33:19;99167.00;;;9.90
10058;BMP180;5068;51.286;7.518;2023-12-20T03:34:52;99177.00;;;9.90
10058;BMP180;5068;51.286;7.518;2023-12-20T03:36:25;99171.00;;;9.90
10058;BMP180;5068;51.286;7.518;2023-12-20T03:37:58;99179.00;;;9.80
10058;BMP180;5068;51.286;7.518;2023-12-20T03:39:33;99175.00;;;9.80
10058;BMP180;5068;51.286;7.518;2023-12-20T03:41:07;99173.00;;;9.80
10058;BMP180;5068;51.286;7.518;2023-12-20T03:42:39;99179.00;;;9.80
10058;BMP180;5068;51.286;7.518;2023-12-20T03:44:13;99183.00;;;9.80
10058;BMP180;5068;51.286;7.518;2023-12-20T03:45:45;99186.00;;;9.80
10058;BMP180;5068;51.286;7.518;2023-12-20T03:47:18;99188.00;;;9.80
10058;BMP180;5068;51.286;7.518;2023-12-20T03:48:50;99180.00;;;9.80
10058;BMP180;5068;51.286;7.518;2023-12-20T03:50:24;99175.00;;;9.80
10058;BMP180;5068;51.286;7.518;2023-12-20T03:51:56;99176.00;;;9.80
10058;BMP180;5068;51.286;7.518;2023-12-20T03:53:30;99186.00;;;9.80
10058;BMP180;5068;51.286;7.518;2023-12-20T03:55:04;99179.00;;;9.80
10058;BMP180;5068;51.286;7.518;2023-12-20T03:56:38;99182.00;;;9.80
10058;BMP180;5068;51.286;7.518;2023-12-20T03:58:10;99184.00;;;9.80
10058;BMP180;5068;51.286;7.518;2023-12-20T03:59:43;99191.00;;;9.80
10058;BMP180;5068;51.286;7.518;2023-12-20T04:01:15;99186.00;;;9.80
10058;BMP180;5068;51.286;7.518;2023-12-20T04:02:49;99192.00;;;9.80
10058;BMP180;5068;51.286;7.518;2023-12-20T04:04:21;99195.00;;;9.70
10058;BMP180;5068;51.286;7.518;2023-12-20T04:05:54;99202.00;;;9.70
10058;BMP180;5068;51.286;7.518;2023-12-20T04:07:26;99194.00;;;9.70
10058;BMP180;5068;51.286;7.518;2023-12-20T04:09:00;99199.00;;;9.70
10058;BMP180;5068;51.286;7.518;2023-12-20T04:10:33;99201.00;;;9.70
10058;BMP180;5068;51.286;7.518;2023-12-20T04:12:07;99204.00;;;9.70
10058;BMP180;5068;51.286;7.518;2023-12-20T04:13:39;99199.00;;;9.70
10058;BMP180;5068;51.286;7.518;2023-12-20T04:15:13;99197.00;;;9.70
10058;BMP180;5068;51.286;7.518;2023-12-20T04:16:45;99202.00;;;9.60
10058;BMP180;5068;51.286;7.518;2023-12-20T04:18:19;99192.00;;;9.70
10058;BMP180;5068;51.286;7.518;2023-12-20T04:19:51;99179.00;;;9.70
10058;BMP180;5068;51.286;7.518;2023-12-20T04:21:25;99184.00;;;9.70
10058;BMP180;5068;51.286;7.518;2023-12-20T04:22:57;99181.00;;;9.70
10058;BMP180;5068;51.286;7.518;2023-12-20T04:24:30;99182.00;;;9.70
10058;BMP180;5068;51.286;7.518;2023-12-20T04:26:04;99186.00;;;9.70
10058;BMP180;5068;51.286;7.518;2023-12-20T04:27:37;99178.00;;;9.60
10058;BMP180;5068;51.286;7.518;2023-12-20T04:29:09;99185.00;;;9.60
10058;BMP180;5068;51.286;7.518;2023-12-20T04:30:42;99193.00;;;9.60
10058;BMP180;5068;51.286;7.518;2023-12-20T04:32:15;99188.00;;;9.60
10058;BMP180;5068;51.286;7.518;2023-12-20T04:33:48;99189.00;;;9.60
10058;BMP180;5068;51.286;7.518;2023-12-20T04:35:20;99195.00;;;9.60
10058;BMP180;5068;51.286;7.518;2023-12-20T04:36:54;99197.00;;;9.60
10058;BMP180;5068;51.286;7.518;2023-12-20T04:38:27;99187.00;;;9.60
10058;BMP180;5068;51.286;7.518;2023-12-20T04:40:00;99186.00;;;9.60
10058;BMP180;5068;51.286;7.518;2023-12-20T04:41:35;99190.00;;;9.60
10058;BMP180;5068;51.286;7.518;2023-12-20T04:43:08;99186.00;;;9.60
10058;BMP180;5068;51.286;7.518;2023-12-20T04:44:41;99194.00;;;9.60
10058;BMP180;5068;51.286;7.518;2023-12-20T04:46:15;99188.00;;;9.60
10058;BMP180;5068;51.286;7.518;2023-12-20T04:47:47;99180.00;;;9.60
10058;BMP180;5068;51.286;7.518;2023-12-20T04:49:21;99181.00;;;9.60
10058;BMP180;5068;51.286;7.518;2023-12-20T04:50:53;99184.00;;;9.60
10058;BMP180;5068;51.286;7.518;2023-12-20T04:52:26;99182.00;;;9.60
10058;BMP180;5068;51.286;7.518;2023-12-20T04:53:58;99179.00;;;9.60
10058;BMP180;5068;51.286;7.518;2023-12-20T04:55:32;99180.00;;;9.60
10058;BMP180;5068;51.286;7.518;2023-12-20T04:57:05;99184.00;;;9.60
10058;BMP180;5068;51.286;7.518;2023-12-20T04:58:38;99184.00;;;9.60
10058;BMP180;5068;51.286;7.518;2023-12-20T05:00:12;99186.00;;;9.50
10058;BMP180;5068;51.286;7.518;2023-12-20T05:01:47;99185.00;;;9.50
10058;BMP180;5068;51.286;7.518;2023-12-20T05:03:19;99186.00;;;9.50
10058;BMP180;5068;51.286;7.518;2023-12-20T05:04:52;99188.00;;;9.50
10058;BMP180;5068;51.286;7.518;2023-12-20T05:06:27;99182.00;;;9.50
10058;BMP180;5068;51.286;7.518;2023-12-20T05:08:00;99183.00;;;9.50
10058;BMP180;5068;51.286;7.518;2023-12-20T05:09:33;99190.00;;;9.60
10058;BMP180;5068;51.286;7.518;2023-12-20T05:11:06;99184.00;;;9.50
10058;BMP180;5068;51.286;7.518;2023-12-20T05:12:40;99180.00;;;9.60
10058;BMP180;5068;51.286;7.518;2023-12-20T05:14:13;99186.00;;;9.60
10058;BMP180;5068;51.286;7.518;2023-12-20T05:15:45;99180.00;;;9.60
10058;BMP180;5068;51.286;7.518;2023-12-20T05:17:19;99189.00;;;9.60
10058;BMP180;5068;51.286;7.518;2023-12-20T05:18:52;99169.00;;;9.60
10058;BMP180;5068;51.286;7.518;2023-12-20T05:20:25;99180.00;;;9.60
10058;BMP180;5068;51.286;7.518;2023-12-20T05:21:59;99197.00;;;9.60
10058;BMP180;5068;51.286;7.518;2023-12-20T05:23:31;99188.00;;;9.60
10058;BMP180;5068;51.286;7.518;2023-12-20T05:25:06;99188.00;;;9.60
10058;BMP180;5068;51.286;7.518;2023-12-20T05:26:39;99189.00;;;9.60
10058;BMP180;5068;51.286;7.518;2023-12-20T05:28:12;99201.00;;;9.60
10058;BMP180;5068;51.286;7.518;2023-12-20T05:29:46;99199.00;;;9.60
10058;BMP180;5068;51.286;7.518;2023-12-20T05:31:18;99198.00;;;9.50
10058;BMP180;5068;51.286;7.518;2023-12-20T05:32:51;99188.00;;;9.50
10058;BMP180;5068;51.286;7.518;2023-12-20T05:34:25;99195.00;;;9.50
10058;BMP180;5068;51.286;7.518;2023-12-20T05:35:57;99198.00;;;9.50
10058;BMP180;5068;51.286;7.518;2023-12-20T05:37:30;99203.00;;;9.50
10058;BMP180;5068;51.286;7.518;2023-12-20T05:39:03;99191.00;;;9.50
10058;BMP180;5068;51.286;7.518;2023-12-20T05:40:36;99202.00;;;9.50
10058;BMP180;5068;51.286;7.518;2023-12-20T05:42:09;99199.00;;;9.50
10058;BMP180;5068;51.286;7.518;2023-12-20T05:43:43;99203.00;;;9.50
10058;BMP180;5068;51.286;7.518;2023-12-20T05:45:16;99200.00;;;9.50
10058;BMP180;5068;51.286;7.518;2023-12-20T05:46:49;99194.00;;;9.40
10058;BMP180;5068;51.286;7.518;2023-12-20T05:48:21;99199.00;;;9.40
10058;BMP180;5068;51.286;7.518;2023-12-20T05:49:54;99190.00;;;9.40
10058;BMP180;5068;51.286;7.518;2023-12-20T05:51:27;99192.00;;;9.40
10058;BMP180;5068;51.286;7.518;2023-12-20T05:53:00;99177.00;;;9.40
10058;BMP180;5068;51.286;7.518;2023-12-20T05:54:32;99185.00;;;9.40
10058;BMP180;5068;51.286;7.518;2023-12-20T05:56:06;99190.00;;;9.40
10058;BMP180;5068;51.286;7.518;2023-12-20T05:57:38;99182.00;;;9.40
10058;BMP180;5068;51.286;7.518;2023-12-20T05:59:13;99177.00;;;9.50
10058;BMP180;5068;51.286;7.518;2023-12-20T06:00:46;99192.00;;;9.50
10058;BMP180;5068;51.286;7.518;2023-12-20T06:02:21;99185.00;;;9.50
10058;BMP180;5068;51.286;7.518;2023-12-20T06:03:53;99188.00;;;9.50
10058;BMP180;5068;51.286;7.518;2023-12-20T06:05:27;99179.00;;;9.50
10058;BMP180;5068;51.286;7.518;2023-12-20T06:06:59;99178.00;;;9.50
10058;BMP180;5068;51.286;7.518;2023-12-20T06:08:32;99193.00;;;9.50
10058;BMP180;5068;51.286;7.518;2023-12-20T06:10:06;99194.00;;;9.50
10058;BMP180;5068;51.286;7.518;2023-12-20T06:11:39;99196.00;;;9.50
10058;BMP180;5068;51.286;7.518;2023-12-20T06:13:12;99187.00;;;9.50
10058;BMP180;5068;51.286;7.518;2023-12-20T06:14:47;99191.00;;;9.50
10058;BMP180;5068;51.286;7.518;2023-12-20T06:16:19;99200.00;;;9.50
10058;BMP180;5068;51.286;7.518;2023-12-20T06:17:53;99189.00;;;9.50
10058;BMP180;5068;51.286;7.518;2023-12-20T06:19:25;99183.00;;;9.50
10058;BMP180;5068;51.286;7.518;2023-12-20T06:20:58;99180.00;;;9.50
10058;BMP180;5068;51.286;7.518;2023-12-20T06:22:31;99179.00;;;9.50
10058;BMP180;5068;51.286;7.518;2023-12-20T06:24:04;99180.00;;;9.50
10058;BMP180;5068;51.286;7.518;2023-12-20T06:25:37;99181.00;;;9.50
10058;BMP180;5068;51.286;7.518;2023-12-20T06:27:10;99180.00;;;9.50
10058;BMP180;5068;51.286;7.518;2023-12-20T06:28:42;99190.00;;;9.50
10058;BMP180;5068;51.286;7.518;2023-12-20T06:30:17;99186.00;;;9.40
10058;BMP180;5068;51.286;7.518;2023-12-20T06:31:49;99184.00;;;9.40
10058;BMP180;5068;51.286;7.518;2023-12-20T06:33:23;99192.00;;;9.40
10058;BMP180;5068;51.286;7.518;2023-12-20T06:35:09;99181.00;;;9.40
10058;BMP180;5068;51.286;7.518;2023-12-20T06:36:41;99192.00;;;9.40
10058;BMP180;5068;51.286;7.518;2023-12-20T06:38:15;99192.00;;;9.40
10058;BMP180;5068;51.286;7.518;2023-12-20T06:39:47;99180.00;;;9.40
10058;BMP180;5068;51.286;7.518;2023-12-20T06:41:21;99190.00;;;9.40
10058;BMP180;5068;51.286;7.518;2023-12-20T06:42:53;99189.00;;;9.40
10058;BMP180;5068;51.286;7.518;2023-12-20T06:44:39;99189.00;;;9.30
10058;BMP180;5068;51.286;7.518;2023-12-20T06:46:14;99189.00;;;9.30
10058;BMP180;5068;51.286;7.518;2023-12-20T06:47:47;99189.00;;;9.30
10058;BMP180;5068;51.286;7.518;2023-12-20T06:49:20;99190.00;;;9.30
10058;BMP180;5068;51.286;7.518;2023-12-20T06:50:52;99201.00;;;9.30
10058;BMP180;5068;51.286;7.518;2023-12-20T06:52:26;99205.00;;;9.40
10058;BMP180;5068;51.286;7.518;2023-12-20T06:53:58;99202.00;;;9.40
10058;BMP180;5068;51.286;7.518;2023-12-20T06:55:32;99189.00;;;9.40
10058;BMP180;5068;51.286;7.518;2023-12-20T06:57:04;99194.00;;;9.40
10058;BMP180;5068;51.286;7.518;2023-12-20T06:58:38;99183.00;;;9.40
10058;BMP180;5068;51.286;7.518;2023-12-20T07:00:12;99194.00;;;9.40
10058;BMP180;5068;51.286;7.518;2023-12-20T07:01:49;99191.00;;;9.40
10058;BMP180;5068;51.286;7.518;2023-12-20T07:03:22;99191.00;;;9.40
10058;BMP180;5068;51.286;7.518;2023-12-20T07:04:56;99191.00;;;9.40
10058;BMP180;5068;51.286;7.518;2023-12-20T07:06:29;99198.00;;;9.40
10058;BMP180;5068;51.286;7.518;2023-12-20T07:08:03;99186.00;;;9.40
10058;BMP180;5068;51.286;7.518;2023-12-20T07:09:36;99190.00;;;9.40
10058;BMP180;5068;51.286;7.518;2023-12-20T07:11:10;99187.00;;;9.40
10058;BMP180;5068;51.286;7.518;2023-12-20T07:12:42;99192.00;;;9.30
10058;BMP180;5068;51.286;7.518;2023-12-20T07:14:16;99188.00;;;9.30
10058;BMP180;5068;51.286;7.518;2023-12-20T07:15:48;99195.00;;;9.30
10058;BMP180;5068;51.286;7.518;2023-12-20T07:17:23;99190.00;;;9.30
10058;BMP180;5068;51.286;7.518;2023-12-20T07:18:55;99186.00;;;9.30
10058;BMP180;5068;51.286;7.518;2023-12-20T07:20:29;99189.00;;;9.30
10058;BMP180;5068;51.286;7.518;2023-12-20T07:22:03;99201.00;;;9.30
10058;BMP180;5068;51.286;7.518;2023-12-20T07:23:36;99202.00;;;9.30
10058;BMP180;5068;51.286;7.518;2023-12-20T07:25:09;99198.00;;;9.30
10058;BMP180;5068;51.286;7.518;2023-12-20T07:26:42;99199.00;;;9.30
10058;BMP180;5068;51.286;7.518;2023-12-20T07:28:14;99193.00;;;9.30
10058;BMP180;5068;51.286;7.518;2023-12-20T07:29:48;99192.00;;;9.30
10058;BMP180;5068;51.286;7.518;2023-12-20T07:31:20;99198.00;;;9.30
10058;BMP180;5068;51.286;7.518;2023-12-20T07:32:55;99189.00;;;9.30
10058;BMP180;5068;51.286;7.518;2023-12-20T07:34:27;99191.00;;;9.30
10058;BMP180;5068;51.286;7.518;2023-12-20T07:36:01;99192.00;;;9.30
10058;BMP180;5068;51.286;7.518;2023-12-20T07:37:33;99193.00;;;9.30
10058;BMP180;5068;51.286;7.518;2023-12-20T07:39:06;99195.00;;;9.30
10058;BMP180;5068;51.286;7.518;2023-12-20T07:40:39;99189.00;;;9.30
10058;BMP180;5068;51.286;7.518;2023-12-20T07:42:12;99203.00;;;9.30
10058;BMP180;5068;51.286;7.518;2023-12-20T07:43:44;99199.00;;;9.30
10058;BMP180;5068;51.286;7.518;2023-12-20T07:45:17;99199.00;;;9.30
10058;BMP180;5068;51.286;7.518;2023-12-20T07:46:50;99196.00;;;9.30
10058;BMP180;5068;51.286;7.518;2023-12-20T07:48:24;99200.00;;;9.30
10058;BMP180;5068;51.286;7.518;2023-12-20T07:49:57;99208.00;;;9.30
10058;BMP180;5068;51.286;7.518;2023-12-20T07:51:30;99215.00;;;9.30
10058;BMP180;5068;51.286;7.518;2023-12-20T07:53:03;99214.00;;;9.30
10058;BMP180;5068;51.286;7.518;2023-12-20T07:54:36;99216.00;;;9.30
10058;BMP180;5068;51.286;7.518;2023-12-20T07:56:15;99208.00;;;9.30
10058;BMP180;5068;51.286;7.518;2023-12-20T07:57:48;99208.00;;;9.30
10058;BMP180;5068;51.286;7.518;2023-12-20T07:59:21;99208.00;;;9.30
10058;BMP180;5068;51.286;7.518;2023-12-20T08:01:03;99212.00;;;9.30
10058;BMP180;5068;51.286;7.518;2023-12-20T08:02:37;99212.00;;;9.30
10058;BMP180;5068;51.286;7.518;2023-12-20T08:04:11;99209.00;;;9.30
10058;BMP180;5068;51.286;7.518;2023-12-20T08:05:44;99201.00;;;9.30
10058;BMP180;5068;51.286;7.518;2023-12-20T08:07:17;99217.00;;;9.30
10058;BMP180;5068;51.286;7.518;2023-12-20T08:08:50;99209.00;;;9.30
10058;BMP180;5068;51.286;7.518;2023-12-20T08:10:33;99212.00;;;9.30
10058;BMP180;5068;51.286;7.518;2023-12-20T08:12:07;99203.00;;;9.30
10058;BMP180;5068;51.286;7.518;2023-12-20T08:13:41;99216.00;;;9.30
10058;BMP180;5068;51.286;7.518;2023-12-20T08:15:13;99213.00;;;9.20
10058;BMP180;5068;51.286;7.518;2023-12-20T08:16:47;99195.00;;;9.30
10058;BMP180;5068;51.286;7.518;2023-12-20T08:18:19;99201.00;;;9.30
10058;BMP180;5068;51.286;7.518;2023-12-20T08:19:54;99203.00;;;9.30
10058;BMP180;5068;51.286;7.518;2023-12-20T08:21:26;99204.00;;;9.30
10058;BMP180;5068;51.286;7.518;2023-12-20T08:23:00;99199.00;;;9.30
10058;BMP180;5068;51.286;7.518;2023-12-20T08:24:32;99198.00;;;9.30
10058;BMP180;5068;51.286;7.518;2023-12-20T08:26:06;99195.00;;;9.30
10058;BMP180;5068;51.286;7.518;2023-12-20T08:27:40;99195.00;;;9.30
10058;BMP180;5068;51.286;7.518;2023-12-20T08:29:13;99200.00;;;9.30
10058;BMP180;5068;51.286;7.518;2023-12-20T08:30:46;99201.00;;;9.30
10058;BMP180;5068;51.286;7.518;2023-12-20T08:32:19;99202.00;;;9.30
10058;BMP180;5068;51.286;7.518;2023-12-20T08:33:52;99209.00;;;9.30
10058;BMP180;5068;51.286;7.518;2023-12-20T08:35:27;99199.00;;;9.30
10058;BMP180;5068;51.286;7.518;2023-12-20T08:36:59;99204.00;;;9.30
10058;BMP180;5068;51.286;7.518;2023-12-20T08:38:34;99211.00;;;9.30
10058;BMP180;5068;51.286;7.518;2023-12-20T08:40:08;99209.00;;;9.30
10058;BMP180;5068;51.286;7.518;2023-12-20T08:41:41;99197.00;;;9.40
10058;BMP180;5068;51.286;7.518;2023-12-20T08:43:13;99201.00;;;9.40
10058;BMP180;5068;51.286;7.518;2023-12-20T08:44:47;99199.00;;;9.40
10058;BMP180;5068;51.286;7.518;2023-12-20T08:46:19;99210.00;;;9.30
10058;BMP180;5068;51.286;7.518;2023-12-20T08:47:52;99193.00;;;9.30
10058;BMP180;5068;51.286;7.518;2023-12-20T08:49:26;99193.00;;;9.30
10058;BMP180;5068;51.286;7.518;2023-12-20T08:51:02;99200.00;;;9.30
10058;BMP180;5068;51.286;7.518;2023-12-20T08:52:34;99198.00;;;9.30
10058;BMP180;5068;51.286;7.518;2023-12-20T08:54:08;99207.00;;;9.30
10058;BMP180;5068;51.286;7.518;2023-12-20T08:55:40;99212.00;;;9.30
10058;BMP180;5068;51.286;7.518;2023-12-20T08:57:13;99204.00;;;9.30
10058;BMP180;5068;51.286;7.518;2023-12-20T08:58:46;99207.00;;;9.30
10058;BMP180;5068;51.286;7.518;2023-12-20T09:00:20;99207.00;;;9.30
10058;BMP180;5068;51.286;7.518;2023-12-20T09:01:56;99204.00;;;9.30
10058;BMP180;5068;51.286;7.518;2023-12-20T09:03:28;99201.00;;;9.30
10058;BMP180;5068;51.286;7.518;2023-12-20T09:05:02;99208.00;;;9.30
10058;BMP180;5068;51.286;7.518;2023-12-20T09:06:36;99206.00;;;9.30
10058;BMP180;5068;51.286;7.518;2023-12-20T09:08:10;99205.00;;;9.30
10058;BMP180;5068;51.286;7.518;2023-12-20T09:09:42;99201.00;;;9.40
10058;BMP180;5068;51.286;7.518;2023-12-20T09:11:15;99197.00;;;9.40